VOZ091 YMML-WADD
Flight info
| Callsign | VOZ091 |
|---|---|
| Flight time | N/A |
| Altitude | 32000 |
| Route | PEDNI H345 AD A585 FRAZA/N0455F340 A585 PD/N0460F360 G578 LIPRA |
| Aircraft | B738/M-SDE2E3FGHIRWXY/LB1 |
Departure
| Time | 2026-05-04 01:36 |
|---|---|
| Airport | Melbourne Airport (YMML) |
Arrival
| Time | N/A |
|---|---|
| Airport | Denpasar I Gusti Ngurah Rai International Airport (WADD) |
| Time | Latitude | Longitude | Altitude | Speed | Heading |
|---|---|---|---|---|---|
| 2026-05-04 01:01 | -37.66845 | 144.84739 | 395 ft | 0 kts | 242° |
| 2026-05-04 01:21 | -37.66836 | 144.84762 | 393 ft | 4 kts | 242° |
| 2026-05-04 01:21 | -37.66826 | 144.84785 | 395 ft | 4 kts | 242° |
| 2026-05-04 01:21 | -37.66813 | 144.84815 | 397 ft | 4 kts | 235° |
| 2026-05-04 01:21 | -37.66796 | 144.84838 | 395 ft | 4 kts | 195° |
| 2026-05-04 01:22 | -37.66773 | 144.84837 | 397 ft | 4 kts | 170° |
| 2026-05-04 01:22 | -37.66746 | 144.84830 | 398 ft | 4 kts | 163° |
| 2026-05-04 01:22 | -37.66726 | 144.84822 | 396 ft | 3 kts | 160° |
| 2026-05-04 01:22 | -37.66701 | 144.84812 | 397 ft | 4 kts | 166° |
| 2026-05-04 01:23 | -37.66674 | 144.84805 | 399 ft | 4 kts | 171° |
| 2026-05-04 01:23 | -37.66652 | 144.84800 | 399 ft | 4 kts | 169° |
| 2026-05-04 01:23 | -37.66626 | 144.84793 | 399 ft | 4 kts | 172° |
| 2026-05-04 01:23 | -37.66602 | 144.84795 | 402 ft | 4 kts | 198° |
| 2026-05-04 01:24 | -37.66577 | 144.84808 | 403 ft | 4 kts | 215° |
| 2026-05-04 01:24 | -37.66558 | 144.84831 | 403 ft | 4 kts | 237° |
| 2026-05-04 01:24 | -37.66547 | 144.84861 | 401 ft | 4 kts | 259° |
| 2026-05-04 01:24 | -37.66543 | 144.84890 | 405 ft | 3 kts | 261° |
| 2026-05-04 01:25 | -37.66543 | 144.84894 | 405 ft | 0 kts | 261° |
| 2026-05-04 01:27 | -37.66544 | 144.84886 | 405 ft | 2 kts | 262° |
| 2026-05-04 01:27 | -37.66546 | 144.84866 | 402 ft | 3 kts | 258° |
| 2026-05-04 01:28 | -37.66556 | 144.84835 | 404 ft | 5 kts | 240° |
| 2026-05-04 01:28 | -37.66593 | 144.84798 | 402 ft | 10 kts | 207° |
| 2026-05-04 01:28 | -37.66641 | 144.84719 | 401 ft | 13 kts | 257° |
| 2026-05-04 01:28 | -37.66654 | 144.84601 | 399 ft | 13 kts | 262° |
| 2026-05-04 01:29 | -37.66668 | 144.84487 | 397 ft | 13 kts | 261° |
| 2026-05-04 01:29 | -37.66681 | 144.84376 | 396 ft | 13 kts | 262° |
| 2026-05-04 01:29 | -37.66695 | 144.84267 | 395 ft | 13 kts | 261° |
| 2026-05-04 01:29 | -37.66707 | 144.84157 | 393 ft | 13 kts | 262° |
| 2026-05-04 01:30 | -37.66725 | 144.84134 | 394 ft | 3 kts | 162° |
| 2026-05-04 01:30 | -37.66751 | 144.84159 | 392 ft | 6 kts | 138° |
| 2026-05-04 01:30 | -37.66795 | 144.84191 | 391 ft | 8 kts | 161° |
| 2026-05-04 01:30 | -37.66860 | 144.84207 | 389 ft | 11 kts | 172° |
| 2026-05-04 01:31 | -37.66942 | 144.84222 | 386 ft | 13 kts | 171° |
| 2026-05-04 01:31 | -37.67037 | 144.84240 | 384 ft | 14 kts | 171° |
| 2026-05-04 01:31 | -37.67140 | 144.84260 | 382 ft | 15 kts | 171° |
| 2026-05-04 01:31 | -37.67248 | 144.84281 | 380 ft | 16 kts | 171° |
| 2026-05-04 01:32 | -37.67359 | 144.84304 | 378 ft | 17 kts | 171° |
| 2026-05-04 01:32 | -37.67479 | 144.84326 | 375 ft | 18 kts | 172° |
| 2026-05-04 01:32 | -37.67609 | 144.84349 | 371 ft | 20 kts | 172° |
| 2026-05-04 01:32 | -37.67753 | 144.84375 | 366 ft | 22 kts | 172° |
| 2026-05-04 01:33 | -37.67915 | 144.84403 | 359 ft | 25 kts | 172° |
| 2026-05-04 01:33 | -37.68092 | 144.84437 | 359 ft | 26 kts | 171° |
| 2026-05-04 01:33 | -37.68263 | 144.84467 | 353 ft | 18 kts | 172° |
| 2026-05-04 01:33 | -37.68376 | 144.84448 | 350 ft | 16 kts | 209° |
| 2026-05-04 01:34 | -37.68470 | 144.84371 | 345 ft | 16 kts | 214° |
| 2026-05-04 01:34 | -37.68534 | 144.84299 | 337 ft | 9 kts | 234° |
| 2026-05-04 01:34 | -37.68554 | 144.84226 | 339 ft | 9 kts | 262° |
| 2026-05-04 01:34 | -37.68548 | 144.84152 | 347 ft | 8 kts | 289° |
| 2026-05-04 01:35 | -37.68513 | 144.84095 | 343 ft | 8 kts | 324° |
| 2026-05-04 01:35 | -37.68473 | 144.84077 | 353 ft | 0 kts | 352° |
| 2026-05-04 01:35 | -37.68268 | 144.84040 | 353 ft | 63 kts | 352° |
| 2026-05-04 01:36 | -37.67628 | 144.83921 | 367 ft | 121 kts | 351° |
| 2026-05-04 01:36 | -37.66649 | 144.83736 | 457 ft | 162 kts | 354° |
| 2026-05-04 01:36 | -37.65470 | 144.83504 | 1005 ft | 177 kts | 352° |
| 2026-05-04 01:36 | -37.64274 | 144.83284 | 1883 ft | 170 kts | 351° |
| 2026-05-04 01:37 | -37.63076 | 144.83062 | 2466 ft | 180 kts | 351° |
| 2026-05-04 01:37 | -37.61767 | 144.82819 | 2675 ft | 198 kts | 351° |
| 2026-05-04 01:37 | -37.60374 | 144.82558 | 3113 ft | 205 kts | 350° |
| 2026-05-04 01:37 | -37.58928 | 144.82285 | 3479 ft | 220 kts | 350° |
| 2026-05-04 01:38 | -37.57463 | 144.81646 | 4036 ft | 228 kts | 328° |
| 2026-05-04 01:38 | -37.56252 | 144.80338 | 4826 ft | 231 kts | 314° |
| 2026-05-04 01:38 | -37.55437 | 144.78574 | 5587 ft | 238 kts | 295° |
| 2026-05-04 01:38 | -37.54943 | 144.76573 | 6364 ft | 240 kts | 292° |
| 2026-05-04 01:39 | -37.54480 | 144.74545 | 7056 ft | 242 kts | 291° |
| 2026-05-04 01:39 | -37.54015 | 144.72487 | 7695 ft | 246 kts | 290° |
| 2026-05-04 01:39 | -37.53704 | 144.71108 | 8112 ft | 249 kts | 290° |
| 2026-05-04 01:39 | -37.53063 | 144.68274 | 9009 ft | 252 kts | 289° |
| 2026-05-04 01:40 | -37.52579 | 144.66145 | 9700 ft | 254 kts | 289° |
| 2026-05-04 01:40 | -37.52255 | 144.64725 | 10110 ft | 255 kts | 288° |
| 2026-05-04 01:40 | -37.51750 | 144.62522 | 10400 ft | 272 kts | 288° |
| 2026-05-04 01:40 | -37.51204 | 144.60148 | 10556 ft | 292 kts | 288° |
| 2026-05-04 01:41 | -37.50621 | 144.57618 | 10707 ft | 311 kts | 288° |
| 2026-05-04 01:41 | -37.50000 | 144.54928 | 10832 ft | 330 kts | 288° |
| 2026-05-04 01:41 | -37.49346 | 144.52094 | 11098 ft | 342 kts | 288° |
| 2026-05-04 01:41 | -37.48677 | 144.49196 | 11656 ft | 345 kts | 288° |
| 2026-05-04 01:42 | -37.48006 | 144.46288 | 12294 ft | 347 kts | 288° |
| 2026-05-04 01:42 | -37.47329 | 144.43362 | 12809 ft | 352 kts | 288° |
| 2026-05-04 01:42 | -37.46637 | 144.40382 | 13361 ft | 355 kts | 288° |
| 2026-05-04 01:42 | -37.45942 | 144.37390 | 13985 ft | 357 kts | 288° |
| 2026-05-04 01:43 | -37.45241 | 144.34379 | 14484 ft | 360 kts | 288° |
| 2026-05-04 01:43 | -37.44536 | 144.31351 | 15039 ft | 361 kts | 288° |
| 2026-05-04 01:43 | -37.43825 | 144.28305 | 15564 ft | 364 kts | 288° |
| 2026-05-04 01:43 | -37.43107 | 144.25236 | 16057 ft | 367 kts | 289° |
| 2026-05-04 01:44 | -37.42385 | 144.22155 | 16631 ft | 367 kts | 289° |
| 2026-05-04 01:44 | -37.41663 | 144.19074 | 17186 ft | 368 kts | 289° |
| 2026-05-04 01:44 | -37.40935 | 144.15971 | 17712 ft | 371 kts | 289° |
| 2026-05-04 01:44 | -37.40203 | 144.12856 | 18206 ft | 373 kts | 289° |
| 2026-05-04 01:45 | -37.39473 | 144.09754 | 18640 ft | 375 kts | 289° |
| 2026-05-04 01:45 | -37.38721 | 144.06563 | 19090 ft | 377 kts | 289° |
| 2026-05-04 01:45 | -37.37229 | 144.00247 | 19925 ft | 381 kts | 290° |
| 2026-05-04 01:46 | -37.36463 | 143.97008 | 20328 ft | 383 kts | 290° |
| 2026-05-04 01:46 | -37.35700 | 143.93787 | 20749 ft | 385 kts | 290° |
| 2026-05-04 01:46 | -37.34942 | 143.90592 | 21139 ft | 387 kts | 290° |
| 2026-05-04 01:46 | -37.34169 | 143.87339 | 21542 ft | 389 kts | 290° |
| 2026-05-04 01:47 | -37.33393 | 143.84076 | 21921 ft | 391 kts | 290° |
| 2026-05-04 01:47 | -37.32610 | 143.80790 | 22294 ft | 394 kts | 290° |
| 2026-05-04 01:47 | -37.31822 | 143.77487 | 22671 ft | 395 kts | 290° |
| 2026-05-04 01:47 | -37.31031 | 143.74173 | 23061 ft | 397 kts | 290° |
| 2026-05-04 01:48 | -37.30235 | 143.70845 | 23465 ft | 398 kts | 290° |
| 2026-05-04 01:48 | -37.29436 | 143.67507 | 23781 ft | 400 kts | 290° |
| 2026-05-04 01:48 | -37.28634 | 143.64164 | 24074 ft | 401 kts | 290° |
| 2026-05-04 01:48 | -37.27826 | 143.60799 | 24357 ft | 403 kts | 291° |
| 2026-05-04 01:49 | -37.27015 | 143.57425 | 24634 ft | 404 kts | 291° |
| 2026-05-04 01:49 | -37.26201 | 143.54044 | 24927 ft | 406 kts | 291° |
| 2026-05-04 01:49 | -37.25382 | 143.50647 | 25201 ft | 407 kts | 291° |
| 2026-05-04 01:49 | -37.24558 | 143.47237 | 25469 ft | 409 kts | 291° |
| 2026-05-04 01:50 | -37.23730 | 143.43810 | 25702 ft | 411 kts | 291° |
| 2026-05-04 01:50 | -37.22897 | 143.40372 | 25962 ft | 412 kts | 291° |
| 2026-05-04 01:50 | -37.22061 | 143.36920 | 26231 ft | 414 kts | 291° |
| 2026-05-04 01:50 | -37.21223 | 143.33464 | 26504 ft | 415 kts | 291° |
| 2026-05-04 01:51 | -37.20379 | 143.29995 | 26693 ft | 417 kts | 291° |
| 2026-05-04 01:51 | -37.19521 | 143.26515 | 26958 ft | 417 kts | 292° |
| 2026-05-04 01:51 | -37.18571 | 143.23145 | 27325 ft | 415 kts | 294° |
| 2026-05-04 01:51 | -37.17530 | 143.19727 | 27669 ft | 413 kts | 295° |
| 2026-05-04 01:52 | -37.16498 | 143.16431 | 27999 ft | 412 kts | 295° |
| 2026-05-04 01:52 | -37.15451 | 143.13095 | 28407 ft | 410 kts | 295° |
| 2026-05-04 01:52 | -37.14414 | 143.09777 | 28729 ft | 409 kts | 295° |
| 2026-05-04 01:52 | -37.13381 | 143.06453 | 29052 ft | 409 kts | 295° |
| 2026-05-04 01:53 | -37.12355 | 143.03132 | 29417 ft | 407 kts | 295° |
| 2026-05-04 01:53 | -37.11339 | 142.99835 | 29785 ft | 406 kts | 294° |
| 2026-05-04 01:53 | -37.10322 | 142.96532 | 30005 ft | 407 kts | 294° |
| 2026-05-04 01:53 | -37.09301 | 142.93215 | 30182 ft | 408 kts | 294° |
| 2026-05-04 01:54 | -37.08281 | 142.89900 | 30436 ft | 408 kts | 294° |
| 2026-05-04 01:54 | -37.07264 | 142.86599 | 30695 ft | 407 kts | 294° |
| 2026-05-04 01:54 | -37.06245 | 142.83296 | 30906 ft | 407 kts | 294° |
| 2026-05-04 01:54 | -37.05223 | 142.79986 | 31099 ft | 407 kts | 294° |
| 2026-05-04 01:55 | -37.04202 | 142.76685 | 31322 ft | 407 kts | 294° |
| 2026-05-04 01:55 | -37.03180 | 142.73382 | 31481 ft | 409 kts | 294° |
| 2026-05-04 01:55 | -37.02147 | 142.70051 | 31585 ft | 411 kts | 293° |
| 2026-05-04 01:55 | -37.01112 | 142.66716 | 31813 ft | 411 kts | 293° |
| 2026-05-04 01:56 | -37.00081 | 142.63397 | 32084 ft | 409 kts | 293° |
| 2026-05-04 01:56 | -36.99050 | 142.60081 | 32292 ft | 409 kts | 293° |
| 2026-05-04 01:56 | -36.98017 | 142.56764 | 32455 ft | 410 kts | 293° |
| 2026-05-04 01:56 | -36.96983 | 142.53448 | 32649 ft | 410 kts | 293° |
| 2026-05-04 01:57 | -36.95946 | 142.50127 | 32852 ft | 410 kts | 293° |
| 2026-05-04 01:57 | -36.94911 | 142.46813 | 33006 ft | 410 kts | 293° |
| 2026-05-04 01:57 | -36.93872 | 142.43494 | 33198 ft | 410 kts | 293° |
| 2026-05-04 01:57 | -36.92833 | 142.40175 | 33417 ft | 409 kts | 293° |
| 2026-05-04 01:58 | -36.91796 | 142.36868 | 33591 ft | 409 kts | 293° |
| 2026-05-04 01:58 | -36.90753 | 142.33546 | 33755 ft | 410 kts | 293° |
| 2026-05-04 01:58 | -36.89712 | 142.30237 | 33888 ft | 411 kts | 293° |
| 2026-05-04 01:58 | -36.88665 | 142.26908 | 33897 ft | 413 kts | 292° |
| 2026-05-04 01:59 | -36.86557 | 142.20223 | 33912 ft | 413 kts | 292° |
| 2026-05-04 01:59 | -36.84448 | 142.13546 | 33907 ft | 413 kts | 292° |
| 2026-05-04 02:00 | -36.82337 | 142.06882 | 33914 ft | 412 kts | 292° |
| 2026-05-04 02:00 | -36.80226 | 142.00231 | 33907 ft | 412 kts | 292° |
| 2026-05-04 02:01 | -36.78130 | 141.93641 | 33912 ft | 412 kts | 292° |
| 2026-05-04 02:01 | -36.76015 | 141.87011 | 33910 ft | 411 kts | 292° |
| 2026-05-04 02:02 | -36.73898 | 141.80387 | 33910 ft | 411 kts | 292° |
| 2026-05-04 02:02 | -36.71777 | 141.73768 | 33909 ft | 411 kts | 291° |
| 2026-05-04 02:03 | -36.69706 | 141.67314 | 33918 ft | 411 kts | 292° |
| 2026-05-04 02:03 | -36.67576 | 141.60698 | 33919 ft | 412 kts | 292° |
| 2026-05-04 02:04 | -36.65441 | 141.54077 | 33921 ft | 412 kts | 292° |
| 2026-05-04 02:04 | -36.63299 | 141.47452 | 33919 ft | 412 kts | 292° |
| 2026-05-04 02:05 | -36.61154 | 141.40830 | 33921 ft | 413 kts | 292° |
| 2026-05-04 02:05 | -36.59002 | 141.34204 | 33927 ft | 413 kts | 292° |
| 2026-05-04 02:06 | -36.56846 | 141.27577 | 33922 ft | 413 kts | 291° |
| 2026-05-04 02:06 | -36.54684 | 141.20951 | 33924 ft | 413 kts | 291° |
| 2026-05-04 02:07 | -36.52518 | 141.14325 | 33929 ft | 414 kts | 291° |
| 2026-05-04 02:07 | -36.50349 | 141.07706 | 33923 ft | 414 kts | 291° |
| 2026-05-04 02:08 | -36.48175 | 141.01085 | 33935 ft | 414 kts | 291° |
| 2026-05-04 02:08 | -36.45997 | 140.94466 | 33936 ft | 414 kts | 291° |
| 2026-05-04 02:09 | -36.43816 | 140.87851 | 33936 ft | 414 kts | 291° |
| 2026-05-04 02:09 | -36.41632 | 140.81240 | 33936 ft | 414 kts | 291° |
| 2026-05-04 02:10 | -36.39338 | 140.74691 | 33932 ft | 415 kts | 297° |
| 2026-05-04 02:10 | -36.35991 | 140.68849 | 33956 ft | 417 kts | 306° |
| 2026-05-04 02:11 | -36.32372 | 140.63216 | 33941 ft | 417 kts | 305° |
| 2026-05-04 02:11 | -36.28797 | 140.57604 | 33949 ft | 417 kts | 305° |
| 2026-05-04 02:12 | -36.25206 | 140.51948 | 33949 ft | 418 kts | 305° |
| 2026-05-04 02:12 | -36.21611 | 140.46288 | 33958 ft | 418 kts | 305° |
| 2026-05-04 02:13 | -36.18013 | 140.40634 | 33950 ft | 419 kts | 304° |
| 2026-05-04 02:13 | -36.14400 | 140.34965 | 33963 ft | 419 kts | 304° |
| 2026-05-04 02:14 | -36.10788 | 140.29306 | 33967 ft | 420 kts | 304° |
| 2026-05-04 02:14 | -36.07160 | 140.23636 | 33972 ft | 421 kts | 304° |
| 2026-05-04 02:15 | -36.03518 | 140.17966 | 33946 ft | 421 kts | 304° |
| 2026-05-04 02:15 | -35.99870 | 140.12296 | 33967 ft | 422 kts | 304° |
| 2026-05-04 02:16 | -35.96218 | 140.06627 | 33969 ft | 422 kts | 304° |
| 2026-05-04 02:16 | -35.92569 | 140.00969 | 33981 ft | 422 kts | 304° |
| 2026-05-04 02:17 | -35.88914 | 139.95313 | 33958 ft | 421 kts | 303° |
| 2026-05-04 02:17 | -35.85263 | 139.89671 | 33971 ft | 421 kts | 303° |
| 2026-05-04 02:18 | -35.81611 | 139.84037 | 33985 ft | 421 kts | 303° |
| 2026-05-04 02:18 | -35.77957 | 139.78408 | 33997 ft | 421 kts | 303° |
| 2026-05-04 02:19 | -35.74303 | 139.72789 | 33977 ft | 420 kts | 303° |
| 2026-05-04 02:19 | -35.70645 | 139.67174 | 33996 ft | 421 kts | 303° |
| 2026-05-04 02:20 | -35.66982 | 139.61558 | 34008 ft | 421 kts | 303° |
| 2026-05-04 02:20 | -35.63308 | 139.55936 | 34001 ft | 422 kts | 303° |
| 2026-05-04 02:21 | -35.59625 | 139.50309 | 33986 ft | 422 kts | 303° |
| 2026-05-04 02:21 | -35.55936 | 139.44681 | 33999 ft | 423 kts | 303° |
| 2026-05-04 02:22 | -35.52238 | 139.39050 | 34012 ft | 424 kts | 303° |
| 2026-05-04 02:22 | -35.48536 | 139.33420 | 33988 ft | 424 kts | 303° |
| 2026-05-04 02:23 | -35.44830 | 139.27793 | 34001 ft | 424 kts | 303° |
| 2026-05-04 02:23 | -35.41120 | 139.22170 | 34019 ft | 424 kts | 303° |
| 2026-05-04 02:24 | -35.37412 | 139.16560 | 34015 ft | 424 kts | 303° |
| 2026-05-04 02:24 | -35.33725 | 139.10985 | 34016 ft | 424 kts | 303° |
| 2026-05-04 02:25 | -35.30014 | 139.05384 | 34016 ft | 423 kts | 303° |
| 2026-05-04 02:25 | -35.26303 | 138.99790 | 34019 ft | 423 kts | 303° |
| 2026-05-04 02:26 | -35.22592 | 138.94204 | 34023 ft | 424 kts | 303° |
| 2026-05-04 02:26 | -35.18870 | 138.88611 | 34034 ft | 424 kts | 303° |
| 2026-05-04 02:27 | -35.15146 | 138.83023 | 34016 ft | 424 kts | 303° |
| 2026-05-04 02:27 | -35.11412 | 138.77429 | 34041 ft | 425 kts | 303° |
| 2026-05-04 02:28 | -35.08305 | 138.72783 | 34044 ft | 426 kts | 303° |
| 2026-05-04 02:28 | -35.04557 | 138.67184 | 34049 ft | 426 kts | 303° |
| 2026-05-04 02:29 | -35.00795 | 138.61573 | 34040 ft | 427 kts | 303° |
| 2026-05-04 02:29 | -34.97024 | 138.55957 | 34024 ft | 428 kts | 304° |
| 2026-05-04 02:30 | -34.93383 | 138.50239 | 34049 ft | 425 kts | 299° |
| 2026-05-04 02:30 | -34.90104 | 138.44262 | 34042 ft | 425 kts | 298° |
| 2026-05-04 02:31 | -34.86834 | 138.38265 | 34049 ft | 425 kts | 298° |
| 2026-05-04 02:31 | -34.83541 | 138.32275 | 34057 ft | 426 kts | 299° |
| 2026-05-04 02:32 | -34.80227 | 138.26283 | 34052 ft | 427 kts | 299° |
| 2026-05-04 02:32 | -34.76902 | 138.20286 | 34040 ft | 428 kts | 299° |
| 2026-05-04 02:33 | -34.73572 | 138.14291 | 34055 ft | 428 kts | 299° |
| 2026-05-04 02:33 | -34.70236 | 138.08292 | 34062 ft | 429 kts | 299° |
| 2026-05-04 02:34 | -34.66883 | 138.02274 | 34067 ft | 430 kts | 299° |
| 2026-05-04 02:34 | -34.63531 | 137.96266 | 34056 ft | 430 kts | 300° |
| 2026-05-04 02:35 | -34.60171 | 137.90252 | 34068 ft | 430 kts | 300° |
| 2026-05-04 02:35 | -34.56804 | 137.84239 | 34066 ft | 431 kts | 300° |
| 2026-05-04 02:36 | -34.53430 | 137.78230 | 34067 ft | 431 kts | 300° |
| 2026-05-04 02:36 | -34.50053 | 137.72222 | 34083 ft | 431 kts | 300° |
| 2026-05-04 02:37 | -34.46693 | 137.66252 | 34080 ft | 432 kts | 300° |
| 2026-05-04 02:37 | -34.43308 | 137.60247 | 34085 ft | 432 kts | 300° |
| 2026-05-04 02:38 | -34.39914 | 137.54236 | 34083 ft | 432 kts | 300° |
| 2026-05-04 02:38 | -34.36548 | 137.48285 | 34087 ft | 433 kts | 300° |
| 2026-05-04 02:39 | -34.33145 | 137.42277 | 34094 ft | 433 kts | 300° |
| 2026-05-04 02:39 | -34.29740 | 137.36277 | 34079 ft | 433 kts | 300° |
| 2026-05-04 02:40 | -34.26330 | 137.30277 | 34093 ft | 433 kts | 300° |
| 2026-05-04 02:40 | -34.22915 | 137.24280 | 34093 ft | 433 kts | 300° |
| 2026-05-04 02:41 | -34.19496 | 137.18283 | 34094 ft | 433 kts | 300° |
| 2026-05-04 02:41 | -34.16070 | 137.12284 | 34092 ft | 434 kts | 300° |
| 2026-05-04 02:42 | -34.12640 | 137.06286 | 34097 ft | 434 kts | 300° |
| 2026-05-04 02:42 | -34.09209 | 137.00300 | 34095 ft | 434 kts | 300° |
| 2026-05-04 02:43 | -34.05772 | 136.94314 | 34093 ft | 434 kts | 300° |
| 2026-05-04 02:43 | -34.02336 | 136.88336 | 34102 ft | 434 kts | 300° |
| 2026-05-04 02:44 | -33.98899 | 136.82363 | 34098 ft | 434 kts | 300° |
| 2026-05-04 02:44 | -33.95460 | 136.76395 | 34088 ft | 433 kts | 301° |
| 2026-05-04 02:45 | -33.92019 | 136.70434 | 34096 ft | 433 kts | 301° |
| 2026-05-04 02:45 | -33.88603 | 136.64527 | 34103 ft | 433 kts | 301° |
| 2026-05-04 02:46 | -33.85156 | 136.58576 | 34099 ft | 433 kts | 301° |
| 2026-05-04 02:46 | -33.81705 | 136.52626 | 34100 ft | 434 kts | 301° |
| 2026-05-04 02:47 | -33.78251 | 136.46683 | 34106 ft | 434 kts | 301° |
| 2026-05-04 02:47 | -33.74791 | 136.40738 | 34113 ft | 434 kts | 301° |
| 2026-05-04 02:48 | -33.71325 | 136.34792 | 34108 ft | 435 kts | 301° |
| 2026-05-04 02:48 | -33.67853 | 136.28846 | 34116 ft | 435 kts | 301° |
| 2026-05-04 02:49 | -33.64375 | 136.22899 | 34119 ft | 435 kts | 301° |
| 2026-05-04 02:49 | -33.60892 | 136.16954 | 34115 ft | 435 kts | 301° |
| 2026-05-04 02:50 | -33.57410 | 136.11020 | 34121 ft | 435 kts | 301° |
| 2026-05-04 02:50 | -33.53922 | 136.05085 | 34122 ft | 435 kts | 301° |
| 2026-05-04 02:51 | -33.50431 | 135.99153 | 34128 ft | 435 kts | 301° |
| 2026-05-04 02:51 | -33.46961 | 135.93265 | 34124 ft | 435 kts | 301° |
| 2026-05-04 02:52 | -33.43466 | 135.87345 | 34118 ft | 435 kts | 302° |
| 2026-05-04 02:52 | -33.39976 | 135.81426 | 34131 ft | 435 kts | 301° |
| 2026-05-04 02:53 | -33.36494 | 135.75516 | 34129 ft | 435 kts | 302° |
| 2026-05-04 02:53 | -33.33005 | 135.69603 | 34135 ft | 435 kts | 302° |
| 2026-05-04 02:54 | -33.29513 | 135.63695 | 34131 ft | 435 kts | 302° |
| 2026-05-04 02:54 | -33.26017 | 135.57790 | 34125 ft | 435 kts | 302° |
| 2026-05-04 02:55 | -33.20769 | 135.48944 | 34143 ft | 435 kts | 302° |
| 2026-05-04 02:56 | -33.17267 | 135.43054 | 34142 ft | 435 kts | 302° |
| 2026-05-04 02:56 | -33.13765 | 135.37172 | 34141 ft | 434 kts | 302° |
| 2026-05-04 02:57 | -33.10267 | 135.31305 | 34147 ft | 434 kts | 302° |
| 2026-05-04 02:57 | -33.06766 | 135.25442 | 34147 ft | 434 kts | 302° |
| 2026-05-04 02:58 | -33.03264 | 135.19586 | 34149 ft | 433 kts | 302° |
| 2026-05-04 02:58 | -32.99762 | 135.13740 | 34152 ft | 433 kts | 302° |
| 2026-05-04 02:59 | -32.96241 | 135.07913 | 34151 ft | 433 kts | 302° |
| 2026-05-04 02:59 | -32.92705 | 135.02103 | 34155 ft | 433 kts | 302° |
| 2026-05-04 03:00 | -32.89173 | 134.96303 | 34149 ft | 433 kts | 303° |
| 2026-05-04 03:00 | -32.85639 | 134.90505 | 34154 ft | 433 kts | 303° |
| 2026-05-04 03:01 | -32.82106 | 134.84714 | 34159 ft | 432 kts | 303° |
| 2026-05-04 03:01 | -32.78595 | 134.78967 | 34156 ft | 432 kts | 303° |
| 2026-05-04 03:02 | -32.75058 | 134.73187 | 34157 ft | 432 kts | 303° |
| 2026-05-04 03:02 | -32.71523 | 134.67418 | 34162 ft | 432 kts | 303° |
| 2026-05-04 03:03 | -32.67987 | 134.61657 | 34167 ft | 431 kts | 303° |
| 2026-05-04 03:03 | -32.64453 | 134.55909 | 34161 ft | 431 kts | 303° |
| 2026-05-04 03:04 | -32.60917 | 134.50165 | 34167 ft | 431 kts | 303° |
| 2026-05-04 03:04 | -32.57380 | 134.44429 | 34172 ft | 431 kts | 303° |
| 2026-05-04 03:05 | -32.53843 | 134.38702 | 34160 ft | 430 kts | 303° |
| 2026-05-04 03:05 | -32.50307 | 134.32984 | 34174 ft | 430 kts | 303° |
| 2026-05-04 03:06 | -32.46769 | 134.27273 | 34175 ft | 430 kts | 303° |
| 2026-05-04 03:06 | -32.43233 | 134.21573 | 34170 ft | 430 kts | 303° |
| 2026-05-04 03:07 | -32.39691 | 134.15873 | 34182 ft | 430 kts | 303° |
| 2026-05-04 03:07 | -32.36147 | 134.10177 | 34180 ft | 430 kts | 303° |
| 2026-05-04 03:08 | -32.32624 | 134.04522 | 34183 ft | 430 kts | 303° |
| 2026-05-04 03:08 | -32.29071 | 133.98830 | 34190 ft | 431 kts | 303° |
| 2026-05-04 03:09 | -32.25488 | 133.93095 | 34336 ft | 436 kts | 303° |
| 2026-05-04 03:09 | -32.23686 | 133.90216 | 34531 ft | 435 kts | 303° |
| 2026-05-04 03:09 | -32.21892 | 133.87352 | 34745 ft | 433 kts | 303° |
| 2026-05-04 03:09 | -32.20099 | 133.84491 | 34891 ft | 433 kts | 303° |
| 2026-05-04 03:10 | -32.18306 | 133.81631 | 35062 ft | 433 kts | 303° |
| 2026-05-04 03:10 | -32.16515 | 133.78775 | 35206 ft | 433 kts | 303° |
| 2026-05-04 03:10 | -32.14724 | 133.75923 | 35400 ft | 432 kts | 303° |
| 2026-05-04 03:10 | -32.12937 | 133.73081 | 35604 ft | 430 kts | 303° |
| 2026-05-04 03:11 | -32.11143 | 133.70254 | 35763 ft | 430 kts | 304° |
| 2026-05-04 03:11 | -32.09330 | 133.67440 | 35880 ft | 431 kts | 304° |
| 2026-05-04 03:11 | -32.07507 | 133.64629 | 35995 ft | 431 kts | 304° |
| 2026-05-04 03:11 | -32.05688 | 133.61829 | 36177 ft | 429 kts | 304° |
| 2026-05-04 03:12 | -32.03865 | 133.59024 | 36167 ft | 432 kts | 304° |
| 2026-05-04 03:12 | -32.00207 | 133.53388 | 36184 ft | 433 kts | 304° |
| 2026-05-04 03:13 | -31.96561 | 133.47770 | 36187 ft | 431 kts | 304° |
| 2026-05-04 03:13 | -31.92920 | 133.42166 | 36191 ft | 430 kts | 304° |
| 2026-05-04 03:14 | -31.89284 | 133.36576 | 36191 ft | 430 kts | 304° |
| 2026-05-04 03:14 | -31.85650 | 133.30998 | 36191 ft | 429 kts | 304° |
| 2026-05-04 03:15 | -31.82015 | 133.25426 | 36190 ft | 429 kts | 304° |
| 2026-05-04 03:15 | -31.78377 | 133.19859 | 36188 ft | 430 kts | 304° |
| 2026-05-04 03:16 | -31.74757 | 133.14327 | 36202 ft | 430 kts | 304° |
| 2026-05-04 03:16 | -31.71083 | 133.08719 | 36193 ft | 431 kts | 304° |
| 2026-05-04 03:17 | -31.67419 | 133.03136 | 36200 ft | 432 kts | 305° |
| 2026-05-04 03:17 | -31.63767 | 132.97580 | 36195 ft | 433 kts | 304° |
| 2026-05-04 03:18 | -31.60081 | 132.91978 | 36201 ft | 434 kts | 304° |
| 2026-05-04 03:18 | -31.57008 | 132.87315 | 36214 ft | 435 kts | 305° |
| 2026-05-04 03:19 | -31.53284 | 132.81673 | 36197 ft | 435 kts | 305° |
| 2026-05-04 03:19 | -31.49600 | 132.76099 | 36200 ft | 435 kts | 305° |
| 2026-05-04 03:20 | -31.45889 | 132.70491 | 36192 ft | 435 kts | 305° |
| 2026-05-04 03:20 | -31.42181 | 132.64898 | 36197 ft | 434 kts | 305° |
| 2026-05-04 03:21 | -31.38480 | 132.59323 | 36199 ft | 433 kts | 305° |
| 2026-05-04 03:21 | -31.34784 | 132.53762 | 36214 ft | 432 kts | 305° |
| 2026-05-04 03:22 | -31.31099 | 132.48227 | 36201 ft | 431 kts | 305° |
| 2026-05-04 03:22 | -31.27417 | 132.42703 | 36210 ft | 430 kts | 305° |
| 2026-05-04 03:23 | -31.23737 | 132.37191 | 36207 ft | 430 kts | 305° |
| 2026-05-04 03:23 | -31.20055 | 132.31683 | 36201 ft | 430 kts | 305° |
| 2026-05-04 03:24 | -31.16371 | 132.26179 | 36214 ft | 430 kts | 305° |
| 2026-05-04 03:24 | -31.12704 | 132.20709 | 36213 ft | 431 kts | 305° |
| 2026-05-04 03:25 | -31.09002 | 132.15194 | 36210 ft | 432 kts | 305° |
| 2026-05-04 03:25 | -31.05268 | 132.09639 | 36211 ft | 433 kts | 305° |
| 2026-05-04 03:26 | -31.01570 | 132.04145 | 36224 ft | 434 kts | 305° |
| 2026-05-04 03:26 | -30.97833 | 131.98602 | 36224 ft | 435 kts | 305° |
| 2026-05-04 03:27 | -30.94084 | 131.93048 | 36203 ft | 436 kts | 305° |
| 2026-05-04 03:27 | -30.90328 | 131.87491 | 36213 ft | 437 kts | 305° |
| 2026-05-04 03:28 | -30.86565 | 131.81932 | 36224 ft | 437 kts | 305° |
| 2026-05-04 03:28 | -30.82797 | 131.76383 | 36222 ft | 438 kts | 305° |
| 2026-05-04 03:29 | -30.79015 | 131.70833 | 36217 ft | 437 kts | 305° |
| 2026-05-04 03:29 | -30.75235 | 131.65288 | 36220 ft | 437 kts | 305° |
| 2026-05-04 03:30 | -30.71454 | 131.59749 | 36223 ft | 437 kts | 305° |
| 2026-05-04 03:30 | -30.67672 | 131.54216 | 36228 ft | 437 kts | 305° |
| 2026-05-04 03:31 | -30.63888 | 131.48686 | 36225 ft | 437 kts | 305° |
| 2026-05-04 03:31 | -30.60102 | 131.43161 | 36226 ft | 437 kts | 305° |
| 2026-05-04 03:32 | -30.56313 | 131.37640 | 36228 ft | 437 kts | 305° |
| 2026-05-04 03:32 | -30.52522 | 131.32124 | 36217 ft | 437 kts | 305° |
| 2026-05-04 03:33 | -30.48733 | 131.26617 | 36231 ft | 437 kts | 305° |
| 2026-05-04 03:33 | -30.44936 | 131.21107 | 36227 ft | 438 kts | 305° |
| 2026-05-04 03:34 | -30.41133 | 131.15596 | 36218 ft | 438 kts | 306° |
| 2026-05-04 03:34 | -30.37326 | 131.10087 | 36231 ft | 438 kts | 305° |
| 2026-05-04 03:35 | -30.33539 | 131.04614 | 36241 ft | 438 kts | 305° |
| 2026-05-04 03:35 | -30.29719 | 130.99101 | 36230 ft | 439 kts | 305° |
| 2026-05-04 03:36 | -30.25897 | 130.93593 | 36233 ft | 439 kts | 306° |
| 2026-05-04 03:36 | -30.22067 | 130.88082 | 36229 ft | 440 kts | 305° |
| 2026-05-04 03:37 | -30.18232 | 130.82571 | 36244 ft | 440 kts | 305° |
| 2026-05-04 03:37 | -30.14393 | 130.77061 | 36235 ft | 440 kts | 305° |
| 2026-05-04 03:38 | -30.10550 | 130.71553 | 36242 ft | 440 kts | 306° |
| 2026-05-04 03:38 | -30.06704 | 130.66048 | 36241 ft | 440 kts | 306° |
| 2026-05-04 03:39 | -30.02855 | 130.60548 | 36240 ft | 440 kts | 306° |
| 2026-05-04 03:39 | -29.99009 | 130.55059 | 36234 ft | 440 kts | 306° |
| 2026-05-04 03:40 | -29.95161 | 130.49574 | 36241 ft | 440 kts | 306° |
| 2026-05-04 03:40 | -29.91315 | 130.44099 | 36235 ft | 439 kts | 306° |
| 2026-05-04 03:41 | -29.87470 | 130.38633 | 36245 ft | 439 kts | 306° |
| 2026-05-04 03:41 | -29.83651 | 130.33212 | 36241 ft | 438 kts | 306° |
| 2026-05-04 03:42 | -29.79808 | 130.27765 | 36244 ft | 438 kts | 306° |
| 2026-05-04 03:42 | -29.75969 | 130.22329 | 36239 ft | 438 kts | 306° |
| 2026-05-04 03:43 | -29.72122 | 130.16890 | 36245 ft | 438 kts | 306° |
| 2026-05-04 03:43 | -29.68270 | 130.11452 | 36252 ft | 438 kts | 306° |
| 2026-05-04 03:44 | -29.64414 | 130.06014 | 36249 ft | 439 kts | 306° |
| 2026-05-04 03:44 | -29.60550 | 130.00574 | 36243 ft | 439 kts | 306° |
| 2026-05-04 03:45 | -29.56680 | 129.95131 | 36249 ft | 440 kts | 306° |
| 2026-05-04 03:45 | -29.52803 | 129.89685 | 36250 ft | 440 kts | 306° |
| 2026-05-04 03:46 | -29.48923 | 129.84244 | 36249 ft | 441 kts | 306° |
| 2026-05-04 03:46 | -29.45031 | 129.78793 | 36242 ft | 442 kts | 306° |
| 2026-05-04 03:47 | -29.41134 | 129.73341 | 36240 ft | 442 kts | 306° |
| 2026-05-04 03:47 | -29.37233 | 129.67893 | 36254 ft | 442 kts | 306° |
| 2026-05-04 03:48 | -29.33329 | 129.62447 | 36252 ft | 442 kts | 306° |
| 2026-05-04 03:48 | -29.29448 | 129.57039 | 36252 ft | 442 kts | 306° |
| 2026-05-04 03:49 | -29.25537 | 129.51598 | 36251 ft | 442 kts | 306° |
| 2026-05-04 03:49 | -29.21624 | 129.46161 | 36257 ft | 442 kts | 306° |
| 2026-05-04 03:50 | -29.17713 | 129.40734 | 36253 ft | 442 kts | 306° |
| 2026-05-04 03:50 | -29.13795 | 129.35304 | 36253 ft | 442 kts | 306° |
| 2026-05-04 03:51 | -29.09875 | 129.29878 | 36248 ft | 442 kts | 306° |
| 2026-05-04 03:51 | -29.05953 | 129.24458 | 36251 ft | 442 kts | 306° |
| 2026-05-04 03:52 | -29.02030 | 129.19041 | 36262 ft | 442 kts | 306° |
| 2026-05-04 03:52 | -28.98103 | 129.13627 | 36258 ft | 443 kts | 306° |
| 2026-05-04 03:53 | -28.94177 | 129.08220 | 36248 ft | 443 kts | 306° |
| 2026-05-04 03:53 | -28.90241 | 129.02807 | 36256 ft | 442 kts | 306° |
| 2026-05-04 03:54 | -28.86311 | 128.97410 | 36256 ft | 443 kts | 306° |
| 2026-05-04 03:54 | -28.82400 | 128.92044 | 36255 ft | 443 kts | 306° |
| 2026-05-04 03:55 | -28.78462 | 128.86644 | 36252 ft | 443 kts | 306° |
| 2026-05-04 03:55 | -28.74522 | 128.81249 | 36260 ft | 443 kts | 306° |
| 2026-05-04 03:56 | -28.70583 | 128.75861 | 36257 ft | 443 kts | 306° |
| 2026-05-04 03:56 | -28.66632 | 128.70465 | 36261 ft | 443 kts | 306° |
| 2026-05-04 03:57 | -28.62687 | 128.65082 | 36262 ft | 443 kts | 306° |
| 2026-05-04 03:57 | -28.58735 | 128.59697 | 36255 ft | 443 kts | 306° |
| 2026-05-04 03:58 | -28.52799 | 128.51622 | 36260 ft | 444 kts | 306° |
| 2026-05-04 03:58 | -28.48836 | 128.46241 | 36245 ft | 444 kts | 306° |
| 2026-05-04 03:59 | -28.44873 | 128.40865 | 36258 ft | 444 kts | 306° |
| 2026-05-04 03:59 | -28.40908 | 128.35494 | 36260 ft | 443 kts | 306° |
| 2026-05-04 04:00 | -28.36946 | 128.30134 | 36258 ft | 443 kts | 306° |
| 2026-05-04 04:00 | -28.32978 | 128.24773 | 36249 ft | 443 kts | 306° |
| 2026-05-04 04:01 | -28.29014 | 128.19424 | 36263 ft | 443 kts | 306° |
| 2026-05-04 04:01 | -28.25049 | 128.14080 | 36258 ft | 442 kts | 306° |
| 2026-05-04 04:02 | -28.21085 | 128.08744 | 36261 ft | 442 kts | 306° |
| 2026-05-04 04:02 | -28.17120 | 128.03414 | 36244 ft | 442 kts | 306° |
| 2026-05-04 04:03 | -28.13162 | 127.98100 | 36254 ft | 441 kts | 306° |
| 2026-05-04 04:03 | -28.09200 | 127.92787 | 36255 ft | 441 kts | 306° |
| 2026-05-04 04:04 | -28.05237 | 127.87479 | 36261 ft | 441 kts | 306° |
| 2026-05-04 04:04 | -28.01271 | 127.82173 | 36266 ft | 441 kts | 306° |
| 2026-05-04 04:05 | -27.97330 | 127.76909 | 36253 ft | 441 kts | 306° |
| 2026-05-04 04:05 | -27.93362 | 127.71614 | 36244 ft | 441 kts | 306° |
| 2026-05-04 04:06 | -27.89392 | 127.66324 | 36258 ft | 441 kts | 306° |
| 2026-05-04 04:06 | -27.85425 | 127.61044 | 36256 ft | 441 kts | 306° |
| 2026-05-04 04:07 | -27.81451 | 127.55761 | 36253 ft | 441 kts | 306° |
| 2026-05-04 04:07 | -27.77473 | 127.50480 | 36254 ft | 441 kts | 306° |
| 2026-05-04 04:08 | -27.73493 | 127.45202 | 36251 ft | 442 kts | 306° |
| 2026-05-04 04:08 | -27.69507 | 127.39923 | 36255 ft | 442 kts | 306° |
| 2026-05-04 04:09 | -27.66193 | 127.35538 | 36256 ft | 442 kts | 306° |
| 2026-05-04 04:09 | -27.62197 | 127.30257 | 36257 ft | 443 kts | 306° |
| 2026-05-04 04:10 | -27.58195 | 127.24975 | 36254 ft | 443 kts | 306° |
| 2026-05-04 04:10 | -27.54189 | 127.19695 | 36254 ft | 443 kts | 305° |
| 2026-05-04 04:11 | -27.50177 | 127.14412 | 36244 ft | 444 kts | 306° |
| 2026-05-04 04:11 | -27.46161 | 127.09131 | 36253 ft | 444 kts | 306° |
| 2026-05-04 04:12 | -27.42141 | 127.03851 | 36255 ft | 444 kts | 306° |
| 2026-05-04 04:12 | -27.38122 | 126.98578 | 36250 ft | 444 kts | 305° |
| 2026-05-04 04:13 | -27.34096 | 126.93301 | 36250 ft | 444 kts | 305° |
| 2026-05-04 04:13 | -27.30067 | 126.88031 | 36249 ft | 444 kts | 305° |
| 2026-05-04 04:14 | -27.26033 | 126.82770 | 36249 ft | 444 kts | 306° |
| 2026-05-04 04:14 | -27.21996 | 126.77512 | 36246 ft | 444 kts | 306° |
| 2026-05-04 04:15 | -27.17958 | 126.72256 | 36241 ft | 444 kts | 305° |
| 2026-05-04 04:15 | -27.13924 | 126.67012 | 36239 ft | 444 kts | 305° |
| 2026-05-04 04:16 | -27.09886 | 126.61768 | 36249 ft | 444 kts | 305° |
| 2026-05-04 04:16 | -27.05846 | 126.56526 | 36256 ft | 444 kts | 305° |
| 2026-05-04 04:17 | -27.01802 | 126.51287 | 36243 ft | 444 kts | 305° |
| 2026-05-04 04:17 | -26.97755 | 126.46050 | 36234 ft | 444 kts | 305° |
| 2026-05-04 04:18 | -26.93707 | 126.40818 | 36243 ft | 444 kts | 305° |
| 2026-05-04 04:18 | -26.89658 | 126.35590 | 36249 ft | 444 kts | 305° |
| 2026-05-04 04:19 | -26.85604 | 126.30362 | 36247 ft | 445 kts | 306° |